createdAt,value
2018-07-08T00:02:22.757Z,56.53
2018-07-08T00:04:53.591Z,56.10
2018-07-08T00:07:24.361Z,56.45
2018-07-08T00:09:55.191Z,56.39
2018-07-08T00:12:25.935Z,56.55
2018-07-08T00:14:56.719Z,56.93
2018-07-08T00:17:27.418Z,57.00
2018-07-08T00:19:58.204Z,57.69
2018-07-08T00:22:28.976Z,57.43
2018-07-08T00:24:59.764Z,57.59
2018-07-08T00:27:30.569Z,58.15
2018-07-08T00:30:01.295Z,57.79
2018-07-08T00:32:31.999Z,58.19
2018-07-08T00:35:02.708Z,58.51
2018-07-08T00:37:33.432Z,58.64
2018-07-08T00:40:04.217Z,58.73
2018-07-08T00:42:34.952Z,58.97
2018-07-08T00:45:05.761Z,58.90
2018-07-08T00:47:36.449Z,59.32
2018-07-08T00:50:07.177Z,59.35
2018-07-08T00:52:37.901Z,59.41
2018-07-08T00:55:09.011Z,59.38
2018-07-08T00:57:39.800Z,59.52
2018-07-08T01:00:28.683Z,60.05
2018-07-08T01:02:59.740Z,59.80
2018-07-08T01:05:30.927Z,59.79
2018-07-08T01:08:02.312Z,60.17
2018-07-08T01:10:33.072Z,60.32
2018-07-08T01:13:03.919Z,60.53
2018-07-08T01:15:34.580Z,60.69
2018-07-08T01:18:05.649Z,60.96
2018-07-08T01:20:36.400Z,61.08
2018-07-08T01:23:07.127Z,61.35
2018-07-08T01:25:54.765Z,61.13
2018-07-08T01:28:25.427Z,61.80
2018-07-08T01:30:56.149Z,61.72
2018-07-08T01:33:26.819Z,61.55
2018-07-08T01:35:57.570Z,62.11
2018-07-08T01:38:59.010Z,62.04
2018-07-08T01:41:29.704Z,62.20
2018-07-08T01:44:00.390Z,62.27
2018-07-08T01:46:31.073Z,62.53
2018-07-08T01:49:01.781Z,62.89
2018-07-08T01:51:32.482Z,62.71
2018-07-08T01:54:03.273Z,62.97
2018-07-08T01:56:34.068Z,63.10
2018-07-08T01:59:05.117Z,63.51
2018-07-08T02:01:35.857Z,63.45
2018-07-08T02:04:06.672Z,63.69
2018-07-08T02:06:37.383Z,64.01
2018-07-08T02:09:14.696Z,63.76
2018-07-08T02:11:45.688Z,63.78
2018-07-08T02:14:16.481Z,63.98
2018-07-08T02:16:47.226Z,64.10
2018-07-08T02:19:17.947Z,64.34
2018-07-08T02:21:48.683Z,64.53
2018-07-08T02:24:19.512Z,64.45
2018-07-08T02:26:50.509Z,64.81
2018-07-08T02:29:21.275Z,64.67
2018-07-08T02:31:52.127Z,64.59
2018-07-08T02:34:22.774Z,64.64
2018-07-08T02:36:53.773Z,64.67
2018-07-08T02:39:25.171Z,64.74
2018-07-08T02:41:56.456Z,65.17
2018-07-08T02:44:27.325Z,65.46
2018-07-08T02:46:58.037Z,65.10
2018-07-08T02:49:28.839Z,65.45
2018-07-08T02:51:59.588Z,65.32
2018-07-08T02:54:30.305Z,65.53
2018-07-08T02:57:01.021Z,65.60
2018-07-08T02:59:31.700Z,65.80
2018-07-08T03:02:02.375Z,66.11
2018-07-08T03:04:33.112Z,66.26
2018-07-08T03:07:03.880Z,66.32
2018-07-08T03:09:34.560Z,66.33
2018-07-08T03:12:05.354Z,66.25
2018-07-08T03:14:36.041Z,66.77
2018-07-08T03:17:06.770Z,66.49
2018-07-08T03:22:38.776Z,66.73
2018-07-08T03:25:09.459Z,66.73
2018-07-08T03:27:40.140Z,66.54
2018-07-08T03:30:10.853Z,66.78
2018-07-08T03:32:41.539Z,66.69
2018-07-08T03:35:12.331Z,66.68
2018-07-08T03:37:43.011Z,66.86
2018-07-08T03:40:13.715Z,66.84
2018-07-08T03:42:44.391Z,67.02
2018-07-08T03:45:15.036Z,66.98
2018-07-08T03:47:45.770Z,66.93
2018-07-08T03:50:16.440Z,67.14
2018-07-08T03:52:47.135Z,67.37
2018-07-08T03:55:17.855Z,67.44
2018-07-08T03:57:48.575Z,67.12
2018-07-08T04:00:19.206Z,66.97
2018-07-08T04:02:49.931Z,67.03
2018-07-08T04:05:20.652Z,67.25
2018-07-08T04:07:51.395Z,67.41
2018-07-08T04:10:22.067Z,67.40
2018-07-08T04:12:52.750Z,67.11
2018-07-08T04:15:23.462Z,67.53
2018-07-08T04:17:58.947Z,67.29
2018-07-08T04:20:29.614Z,66.85
2018-07-08T04:23:00.532Z,66.79
2018-07-08T04:25:31.491Z,66.89
2018-07-08T04:28:02.321Z,67.18
2018-07-08T04:30:33.013Z,66.91
2018-07-08T04:33:03.732Z,66.69
2018-07-08T04:35:34.419Z,66.53
2018-07-08T04:38:05.181Z,67.12
2018-07-08T04:40:35.906Z,66.97
2018-07-08T04:43:06.709Z,66.97
2018-07-08T04:45:37.426Z,66.50
2018-07-08T04:48:08.134Z,66.95
2018-07-08T04:50:38.812Z,66.89
2018-07-08T04:53:09.509Z,67.12
2018-07-08T04:55:40.136Z,66.58
2018-07-08T04:58:10.815Z,66.43
2018-07-08T05:00:41.454Z,66.42
2018-07-08T05:03:12.184Z,66.23
2018-07-08T05:05:42.511Z,66.00
2018-07-08T05:08:13.373Z,65.94
2018-07-08T05:10:44.055Z,65.57
2018-07-08T05:13:14.747Z,65.75
2018-07-08T05:15:45.399Z,65.82
2018-07-08T05:18:16.038Z,65.86
2018-07-08T05:20:46.756Z,65.68
2018-07-08T05:23:17.432Z,65.60
2018-07-08T05:25:48.125Z,65.55
2018-07-08T05:28:18.768Z,64.88
2018-07-08T05:30:49.485Z,64.90
2018-07-08T05:33:20.221Z,64.99
2018-07-08T05:35:50.906Z,65.04
2018-07-08T05:38:21.616Z,64.58
2018-07-08T05:40:52.283Z,64.32
2018-07-08T05:43:23.004Z,64.96
2018-07-08T05:45:53.640Z,64.33
2018-07-08T05:48:24.333Z,64.00
2018-07-08T05:50:55.046Z,63.74
2018-07-08T05:53:25.726Z,64.04
2018-07-08T05:55:56.469Z,63.68
2018-07-08T05:58:27.169Z,63.02
2018-07-08T06:00:57.885Z,62.97
2018-07-08T06:03:28.580Z,62.91
2018-07-08T06:05:59.367Z,62.47
2018-07-08T06:08:30.181Z,61.76
2018-07-08T06:11:00.867Z,61.38
2018-07-08T06:13:31.565Z,60.90
2018-07-08T06:16:05.145Z,60.53
2018-07-08T06:18:35.828Z,60.25
2018-07-08T06:21:06.649Z,60.13
2018-07-08T06:23:37.336Z,59.48
2018-07-08T06:26:08.920Z,58.99
2018-07-08T06:28:39.648Z,58.47
2018-07-08T06:31:10.660Z,58.44
2018-07-08T06:33:41.315Z,58.48
2018-07-08T06:36:12.051Z,58.05
2018-07-08T06:38:42.748Z,57.23
2018-07-08T06:41:13.506Z,56.63
2018-07-08T06:43:44.233Z,56.56
2018-07-08T06:46:14.977Z,55.87
2018-07-08T06:48:45.641Z,55.73
2018-07-08T06:51:16.419Z,55.80
2018-07-08T06:53:47.283Z,54.92
2018-07-08T06:56:17.993Z,54.58
2018-07-08T06:58:48.703Z,53.42
2018-07-08T07:01:19.365Z,53.67
2018-07-08T07:03:56.812Z,53.58
2018-07-08T07:06:27.524Z,53.24
2018-07-08T07:08:58.184Z,51.90
2018-07-08T07:11:28.864Z,51.51
2018-07-08T07:13:59.543Z,51.75
2018-07-08T07:16:30.223Z,51.98
2018-07-08T07:19:00.902Z,51.66
2018-07-08T07:21:31.521Z,51.08
2018-07-08T07:24:02.190Z,50.52
2018-07-08T07:26:32.875Z,49.55
2018-07-08T07:29:03.543Z,48.97
2018-07-08T07:31:34.269Z,48.79
2018-07-08T07:34:04.992Z,48.80
2018-07-08T07:36:35.842Z,49.11
2018-07-08T07:39:07.517Z,48.46
2018-07-08T07:41:38.196Z,47.02
2018-07-08T07:44:08.880Z,46.60
2018-07-08T07:46:39.518Z,45.89
2018-07-08T07:49:10.208Z,45.00
2018-07-08T07:51:40.907Z,45.32
2018-07-08T07:54:11.615Z,44.51
2018-07-08T07:56:42.324Z,44.42
2018-07-08T07:59:12.961Z,44.29
2018-07-08T08:01:43.667Z,44.66
2018-07-08T08:04:14.386Z,44.68
2018-07-08T08:06:45.073Z,45.29
2018-07-08T08:09:15.816Z,43.61
2018-07-08T08:11:46.487Z,42.75
2018-07-08T08:14:17.202Z,42.51
2018-07-08T08:16:47.931Z,41.61
2018-07-08T08:19:18.623Z,41.45
2018-07-08T08:21:49.319Z,40.31
2018-07-08T08:24:19.985Z,41.31
2018-07-08T08:26:50.805Z,40.81
2018-07-08T08:29:21.404Z,40.18
2018-07-08T08:31:52.088Z,39.40
2018-07-08T08:35:09.503Z,39.96
2018-07-08T08:37:46.326Z,39.71
2018-07-08T08:40:17.925Z,38.09
2018-07-08T08:42:48.692Z,38.56
2018-07-08T08:45:20.216Z,37.76
2018-07-08T08:47:50.946Z,36.81
2018-07-08T08:50:21.653Z,35.56
2018-07-08T08:52:52.414Z,35.72
2018-07-08T08:55:23.082Z,34.81
2018-07-08T08:57:53.791Z,34.38
2018-07-08T09:00:24.456Z,33.45
2018-07-08T09:02:55.159Z,32.94
2018-07-08T09:05:25.802Z,34.00
2018-07-08T09:07:56.465Z,33.08
2018-07-08T09:10:27.187Z,31.43
2018-07-08T09:12:57.841Z,31.45
2018-07-08T09:15:28.500Z,30.04
2018-07-08T09:17:59.242Z,29.26
2018-07-08T09:20:29.931Z,29.35
2018-07-08T09:23:00.633Z,28.94
2018-07-08T09:25:31.253Z,30.10
2018-07-08T09:28:01.897Z,30.03
2018-07-08T09:30:32.622Z,28.60
2018-07-08T09:33:03.265Z,28.28
2018-07-08T09:35:33.958Z,27.11
2018-07-08T09:38:04.634Z,27.02
2018-07-08T09:40:35.333Z,27.59
2018-07-08T09:43:06.064Z,26.58
2018-07-08T09:45:36.741Z,25.93
2018-07-08T09:48:07.429Z,25.33
2018-07-08T09:50:38.143Z,25.94
2018-07-08T09:53:08.848Z,24.89
2018-07-08T09:55:39.509Z,25.03
2018-07-08T09:58:10.154Z,24.72
2018-07-08T10:00:40.816Z,24.32
2018-07-08T10:03:11.501Z,25.04
2018-07-08T10:05:42.172Z,26.12
2018-07-08T10:08:12.820Z,24.46
2018-07-08T10:10:43.523Z,24.03
2018-07-08T10:13:14.151Z,23.72
2018-07-08T10:15:44.861Z,23.72
2018-07-08T10:18:15.478Z,24.51
2018-07-08T10:20:46.545Z,22.66
2018-07-08T10:23:17.248Z,22.72
2018-07-08T10:25:47.949Z,22.43
2018-07-08T10:28:19.810Z,22.23
2018-07-08T10:30:50.809Z,21.50
2018-07-08T10:33:21.578Z,22.95
2018-07-08T10:35:58.995Z,21.51
2018-07-08T10:38:29.708Z,21.54
2018-07-08T10:41:00.385Z,21.59
2018-07-08T10:43:31.079Z,21.40
2018-07-08T10:46:01.724Z,20.35
2018-07-08T10:48:32.402Z,21.88
2018-07-08T10:51:03.078Z,21.09
2018-07-08T10:53:33.760Z,21.21
2018-07-08T10:56:04.473Z,20.90
2018-07-08T10:58:35.177Z,22.24
2018-07-08T11:01:05.883Z,21.30
2018-07-08T11:03:36.647Z,21.01
2018-07-08T11:06:07.424Z,21.00
2018-07-08T11:08:38.132Z,21.56
2018-07-08T11:11:08.832Z,20.92
2018-07-08T11:13:39.575Z,21.50
2018-07-08T11:16:10.298Z,21.88
2018-07-08T11:18:41.097Z,20.97
2018-07-08T11:21:11.832Z,21.89
2018-07-08T11:23:42.560Z,21.73
2018-07-08T11:26:13.263Z,21.73
2018-07-08T11:28:43.611Z,22.31
2018-07-08T11:31:14.280Z,20.96
2018-07-08T11:33:44.911Z,21.62
2018-07-08T11:36:15.613Z,20.76
2018-07-08T11:38:46.298Z,20.84
2018-07-08T11:41:17.087Z,21.66
2018-07-08T11:43:47.879Z,21.74
2018-07-08T11:46:18.590Z,21.66
2018-07-08T11:48:49.293Z,21.55
2018-07-08T11:51:19.908Z,21.82
2018-07-08T11:53:50.656Z,21.62
2018-07-08T11:56:21.295Z,21.98
2018-07-08T11:58:51.988Z,22.28
2018-07-08T12:01:22.775Z,21.19
2018-07-08T12:03:53.509Z,21.28
2018-07-08T12:06:24.295Z,21.05
2018-07-08T12:08:54.978Z,21.90
2018-07-08T12:11:25.744Z,21.73
2018-07-08T12:13:56.491Z,20.52
2018-07-08T12:16:27.242Z,20.85
2018-07-08T12:18:57.900Z,20.90
2018-07-08T12:21:28.643Z,21.02
2018-07-08T12:23:59.282Z,21.21
2018-07-08T12:26:30.050Z,20.71
2018-07-08T12:29:00.677Z,21.08
2018-07-08T12:31:31.356Z,21.08
2018-07-08T12:34:02.070Z,21.57
2018-07-08T12:36:32.732Z,20.90
2018-07-08T12:39:03.771Z,20.66
2018-07-08T12:41:34.392Z,20.61
2018-07-08T12:44:05.251Z,21.09
2018-07-08T12:46:35.865Z,21.28
2018-07-08T12:49:06.297Z,20.94
2018-07-08T12:51:36.959Z,21.02
2018-07-08T12:54:07.665Z,21.55
2018-07-08T12:56:38.334Z,21.36
2018-07-08T12:59:09.027Z,21.92
2018-07-08T13:01:39.692Z,21.12
2018-07-08T13:04:10.446Z,20.83
2018-07-08T13:06:41.206Z,21.53
2018-07-08T13:09:11.841Z,22.48
2018-07-08T13:11:42.632Z,22.13
2018-07-08T13:14:13.340Z,21.71
2018-07-08T13:16:44.029Z,21.02
2018-07-08T13:19:14.690Z,21.04
2018-07-08T13:21:45.359Z,21.25
2018-07-08T13:24:16.038Z,21.23
2018-07-08T13:26:46.705Z,21.77
2018-07-08T13:29:17.385Z,21.77
2018-07-08T13:31:48.081Z,21.45
2018-07-08T13:34:18.771Z,20.72
2018-07-08T13:36:49.473Z,21.75
2018-07-08T13:39:20.196Z,21.24
2018-07-08T13:41:50.832Z,20.77
2018-07-08T13:44:21.497Z,20.60
2018-07-08T13:46:52.263Z,21.06
2018-07-08T13:49:26.365Z,20.96
2018-07-08T13:51:57.024Z,21.18
2018-07-08T13:54:27.719Z,21.04
2018-07-08T13:56:58.423Z,21.61
2018-07-08T13:59:29.186Z,21.30
2018-07-08T14:01:59.900Z,22.00
2018-07-08T14:04:30.612Z,21.25
2018-07-08T14:07:01.295Z,22.16
2018-07-08T14:09:32.440Z,22.07
2018-07-08T14:12:03.191Z,21.39
2018-07-08T14:14:34.015Z,20.81
2018-07-08T14:17:04.713Z,22.02
2018-07-08T14:19:38.357Z,20.47
2018-07-08T14:22:09.022Z,20.31
2018-07-08T14:24:39.708Z,20.52
2018-07-08T14:27:10.372Z,20.40
2018-07-08T14:29:41.081Z,19.87
2018-07-08T14:32:11.778Z,20.83
2018-07-08T14:34:42.477Z,21.06
2018-07-08T14:37:13.254Z,20.16
2018-07-08T14:39:43.987Z,21.63
2018-07-08T14:42:14.715Z,21.35
2018-07-08T14:44:45.574Z,21.48
2018-07-08T14:47:16.140Z,21.94
2018-07-08T14:49:46.831Z,21.93
2018-07-08T14:52:17.540Z,22.37
2018-07-08T14:54:48.266Z,21.24
2018-07-08T14:57:18.912Z,22.08
2018-07-08T14:59:49.590Z,22.31
2018-07-08T15:02:20.323Z,22.14
2018-07-08T15:04:51.075Z,22.08
2018-07-08T15:07:21.784Z,22.28
2018-07-08T15:09:52.503Z,22.21
2018-07-08T15:12:23.319Z,22.84
2018-07-08T15:14:54.088Z,22.82
2018-07-08T15:17:24.853Z,22.94
2018-07-08T15:19:55.587Z,23.25
2018-07-08T15:22:26.249Z,22.80
2018-07-08T15:24:56.943Z,23.34
2018-07-08T15:27:27.570Z,23.42
2018-07-08T15:29:57.909Z,21.99
2018-07-08T15:32:28.428Z,22.65
2018-07-08T15:34:59.195Z,22.80
2018-07-08T15:37:29.934Z,23.63
2018-07-08T15:40:00.640Z,23.29
2018-07-08T15:42:31.420Z,24.51
2018-07-08T15:45:02.312Z,24.04
2018-07-08T15:47:33.164Z,24.29
2018-07-08T15:50:03.948Z,24.37
2018-07-08T15:52:34.721Z,24.75
2018-07-08T15:55:05.827Z,24.55
2018-07-08T15:57:36.673Z,24.78
2018-07-08T16:00:07.402Z,25.61
2018-07-08T16:02:38.061Z,24.68
2018-07-08T16:05:08.746Z,25.32
2018-07-08T16:07:39.449Z,25.51
2018-07-08T16:10:10.192Z,25.63
2018-07-08T16:12:40.872Z,25.78
2018-07-08T16:15:11.556Z,25.80
2018-07-08T16:17:42.316Z,26.47
2018-07-08T16:20:12.991Z,25.92
2018-07-08T16:22:43.774Z,26.13
2018-07-08T16:25:14.474Z,26.29
2018-07-08T16:27:45.148Z,27.04
2018-07-08T16:30:15.844Z,27.16
2018-07-08T16:32:46.652Z,26.96
2018-07-08T16:35:17.381Z,27.28
2018-07-08T16:37:48.140Z,27.42
2018-07-08T16:40:18.841Z,27.12
2018-07-08T16:42:49.593Z,27.39
2018-07-08T16:45:20.323Z,27.46
2018-07-08T16:47:51.020Z,27.35
2018-07-08T16:50:21.786Z,27.16
2018-07-08T16:52:52.167Z,27.72
2018-07-08T16:55:22.819Z,27.91
2018-07-08T16:57:53.498Z,27.51
2018-07-08T17:00:24.173Z,28.68
2018-07-08T17:02:54.908Z,28.64
2018-07-08T17:05:25.575Z,29.40
2018-07-08T17:07:56.367Z,29.49
2018-07-08T17:10:27.148Z,29.55
2018-07-08T17:12:58.145Z,29.54
2018-07-08T17:15:29.207Z,29.89
2018-07-08T17:17:59.932Z,30.19
2018-07-08T17:20:30.685Z,29.47
2018-07-08T17:23:01.477Z,30.06
2018-07-08T17:25:32.346Z,30.39
2018-07-08T17:28:09.027Z,30.66
2018-07-08T17:30:39.453Z,30.90
2018-07-08T17:33:10.031Z,30.58
2018-07-08T17:35:40.740Z,30.32
2018-07-08T17:38:11.488Z,30.71
2018-07-08T17:40:42.160Z,30.75
2018-07-08T17:43:12.899Z,30.58
2018-07-08T17:45:43.695Z,30.45
2018-07-08T17:48:14.416Z,30.79
2018-07-08T17:50:45.164Z,31.00
2018-07-08T17:53:15.911Z,30.71
2018-07-08T17:55:46.635Z,31.40
2018-07-08T17:58:17.381Z,31.08
2018-07-08T18:00:48.112Z,31.87
2018-07-08T18:03:19.303Z,32.02
2018-07-08T18:05:50.004Z,32.03
2018-07-08T18:08:20.772Z,32.18
2018-07-08T18:11:05.998Z,31.90
2018-07-08T18:13:36.748Z,32.12
2018-07-08T18:16:07.669Z,32.39
2018-07-08T18:18:38.532Z,32.47
2018-07-08T18:21:09.444Z,32.44
2018-07-08T18:23:40.314Z,32.43
2018-07-08T18:26:11.150Z,32.56
2018-07-08T18:28:41.884Z,32.75
2018-07-08T18:31:12.696Z,33.27
2018-07-08T18:33:43.467Z,32.74
2018-07-08T18:36:14.245Z,32.82
2018-07-08T18:38:45.125Z,33.69
2018-07-08T18:41:15.939Z,33.24
2018-07-08T18:43:46.784Z,34.19
2018-07-08T18:46:17.735Z,33.53
2018-07-08T18:48:48.604Z,33.68
2018-07-08T18:51:19.384Z,34.08
2018-07-08T18:53:50.278Z,34.23
2018-07-08T18:56:21.163Z,34.42
2018-07-08T18:58:52.225Z,34.81
2018-07-08T19:01:22.920Z,34.54
2018-07-08T19:03:54.135Z,34.55
2018-07-08T19:06:24.995Z,35.03
2018-07-08T19:08:55.733Z,34.57
2018-07-08T19:11:26.523Z,35.86
2018-07-08T19:13:57.256Z,36.62
2018-07-08T19:16:28.095Z,37.12
2018-07-08T19:18:58.843Z,36.64
2018-07-08T19:21:29.498Z,37.17
2018-07-08T19:24:00.264Z,37.78
2018-07-08T19:26:30.800Z,37.80
2018-07-08T19:29:01.784Z,38.14
2018-07-08T19:31:32.665Z,37.96
2018-07-08T19:34:03.467Z,37.92
2018-07-08T19:36:34.202Z,38.06
2018-07-08T19:39:06.319Z,38.28
2018-07-08T19:41:39.150Z,38.50
2018-07-08T19:44:09.890Z,38.79
2018-07-08T19:46:40.692Z,39.50
2018-07-08T19:49:11.338Z,39.53
2018-07-08T19:51:42.494Z,39.98
2018-07-08T19:54:13.221Z,39.98
2018-07-08T19:57:46.879Z,40.20
2018-07-08T20:00:17.574Z,40.91
2018-07-08T20:02:48.308Z,40.60
2018-07-08T20:05:19.048Z,40.60
2018-07-08T20:07:49.851Z,40.93
2018-07-08T20:10:20.557Z,41.31
2018-07-08T20:12:51.253Z,41.62
2018-07-08T20:18:54.445Z,41.62
2018-07-08T20:21:25.417Z,41.73
2018-07-08T20:23:56.154Z,41.95
2018-07-08T20:26:26.542Z,41.86
2018-07-08T20:28:57.252Z,42.15
2018-07-08T20:31:27.974Z,42.75
2018-07-08T20:33:58.657Z,42.64
2018-07-08T20:36:29.836Z,42.65
2018-07-08T20:39:00.655Z,42.79
2018-07-08T20:41:31.393Z,42.79
2018-07-08T20:44:02.157Z,43.74
2018-07-08T20:46:32.814Z,43.43
2018-07-08T20:49:03.527Z,43.37
2018-07-08T20:51:34.210Z,43.45
2018-07-08T20:54:04.931Z,43.75
2018-07-08T20:56:36.272Z,43.55
2018-07-08T20:59:10.027Z,43.67
2018-07-08T21:01:40.854Z,44.16
2018-07-08T21:04:11.660Z,43.88
2018-07-08T21:06:42.377Z,44.03
2018-07-08T21:09:13.991Z,44.49
2018-07-08T21:11:44.669Z,44.43
2018-07-08T21:14:15.369Z,44.22
2018-07-08T21:16:45.794Z,44.42
2018-07-08T21:19:16.365Z,44.38
2018-07-08T21:21:47.318Z,45.10
2018-07-08T21:24:18.057Z,44.72
2018-07-08T21:26:49.076Z,44.98
2018-07-08T21:29:19.856Z,45.19
2018-07-08T21:31:50.714Z,45.36
2018-07-08T21:34:21.412Z,45.33
2018-07-08T21:36:52.219Z,45.94
2018-07-08T21:39:22.957Z,45.69
2018-07-08T21:41:53.614Z,46.07
2018-07-08T21:44:24.302Z,46.45
2018-07-08T21:46:54.984Z,46.74
2018-07-08T21:49:25.662Z,46.42
2018-07-08T21:51:56.348Z,46.52
2018-07-08T21:54:27.032Z,47.00
2018-07-08T21:56:57.767Z,47.10
2018-07-08T21:59:28.531Z,47.05
2018-07-08T22:02:02.480Z,47.12
2018-07-08T22:04:33.223Z,47.37
2018-07-08T22:07:08.980Z,47.38
2018-07-08T22:09:39.693Z,47.71
2018-07-08T22:12:10.411Z,47.49
2018-07-08T22:14:41.124Z,47.56
2018-07-08T22:17:11.793Z,48.14
2018-07-08T22:19:42.613Z,48.08
2018-07-08T22:22:13.319Z,48.32
2018-07-08T22:24:44.053Z,48.61
2018-07-08T22:27:14.765Z,48.22
2018-07-08T22:29:45.544Z,48.85
2018-07-08T22:32:16.306Z,48.82
2018-07-08T22:34:47.178Z,48.71
2018-07-08T22:37:17.843Z,49.16
2018-07-08T22:39:48.927Z,48.90
2018-07-08T22:42:19.585Z,48.80
2018-07-08T22:44:50.435Z,49.31
2018-07-08T22:47:21.087Z,49.23
2018-07-08T22:49:51.831Z,49.30
2018-07-08T22:52:22.509Z,49.35
2018-07-08T22:54:53.307Z,49.92
2018-07-08T22:57:24.023Z,49.83
2018-07-08T23:00:11.562Z,49.63
2018-07-08T23:02:47.478Z,50.15
2018-07-08T23:05:18.343Z,50.14
2018-07-08T23:07:49.020Z,49.66
2018-07-08T23:10:19.729Z,49.83
2018-07-08T23:12:50.444Z,50.16
2018-07-08T23:15:21.133Z,49.97
2018-07-08T23:17:51.792Z,50.41
2018-07-08T23:20:22.483Z,50.54
2018-07-08T23:22:59.863Z,50.34
2018-07-08T23:25:30.595Z,50.70
2018-07-08T23:28:01.370Z,50.37
2018-07-08T23:30:32.107Z,50.81
2018-07-08T23:33:02.901Z,50.81
2018-07-08T23:35:33.595Z,50.53
2018-07-08T23:38:04.470Z,50.72
2018-07-08T23:40:35.229Z,50.89
2018-07-08T23:43:06.173Z,50.96
2018-07-08T23:45:36.921Z,51.02
2018-07-08T23:48:07.622Z,51.12
2018-07-08T23:50:38.427Z,51.36
2018-07-08T23:53:09.233Z,51.88
2018-07-08T23:55:40.167Z,51.55
2018-07-08T23:58:10.816Z,51.95
